createdAt,value
2022-08-10T00:09:19.179Z,1027.21
2022-08-10T00:18:56.132Z,1027.28
2022-08-10T00:28:33.045Z,1027.19
2022-08-10T00:38:09.734Z,1027.2
2022-08-10T00:47:46.834Z,1027.17
2022-08-10T00:57:24.006Z,1027.16
2022-08-10T01:07:00.577Z,1027.23
2022-08-10T01:26:30.849Z,1027.21
2022-08-10T01:45:28.128Z,1027.29
2022-08-10T01:55:04.684Z,1027.31
2022-08-10T02:04:41.311Z,1027.34
2022-08-10T02:14:17.886Z,1027.35
2022-08-10T02:23:59.736Z,1027.35
2022-08-10T02:33:31.255Z,1027.43
2022-08-10T02:45:17.349Z,1027.4
2022-08-10T02:52:44.731Z,1027.33
2022-08-10T03:02:21.259Z,1027.41
2022-08-10T03:12:16.687Z,1027.5
2022-08-10T03:21:34.562Z,1027.55
2022-08-10T03:31:11.683Z,1027.54
2022-08-10T03:40:48.536Z,1027.61
2022-08-10T03:50:28.122Z,1027.64
2022-08-10T04:00:02.283Z,1027.75
2022-08-10T04:09:43.498Z,1027.82
2022-08-10T04:19:16.636Z,1027.94
2022-08-10T04:28:53.826Z,1027.88
2022-08-10T04:38:31.202Z,1027.86
2022-08-10T04:48:08.827Z,1027.84
2022-08-10T04:57:45.873Z,1027.91
2022-08-10T05:07:23.491Z,1027.95
2022-08-10T05:17:00.722Z,1027.89
2022-08-10T05:26:55.409Z,1027.9
2022-08-10T05:36:16.445Z,1027.9
2022-08-10T05:46:16.282Z,1027.87
2022-08-10T05:55:32.427Z,1027.9
2022-08-10T06:05:09.926Z,1028.01
2022-08-10T06:14:48.574Z,1027.91
2022-08-10T06:24:29.238Z,1027.86
2022-08-10T06:34:03.253Z,1027.86
2022-08-10T06:43:41.402Z,1027.88
2022-08-10T06:53:19.792Z,1027.74
2022-08-10T07:12:36.636Z,1027.64
2022-08-10T07:41:31.678Z,1027.5
2022-08-10T07:51:09.370Z,1027.45
2022-08-10T08:00:48.536Z,1027.39
2022-08-10T08:10:25.829Z,1027.41
2022-08-10T08:20:04.123Z,1027.31
2022-08-10T08:29:42.364Z,1027.31
2022-08-10T08:39:20.878Z,1027.28
2022-08-10T08:48:59.636Z,1027.22
2022-08-10T08:58:38.243Z,1027.09
2022-08-10T09:08:16.575Z,1027
2022-08-10T09:17:55.100Z,1026.91
2022-08-10T09:27:33.903Z,1026.83
2022-08-10T09:37:12.536Z,1026.69
2022-08-10T09:47:00.127Z,1026.47
2022-08-10T09:56:48.219Z,1026.28
2022-08-10T10:06:30.787Z,1026.12
2022-08-10T10:16:13.245Z,1026.01
2022-08-10T10:26:00.829Z,1025.85
2022-08-10T10:35:36.878Z,1025.43
2022-08-10T10:45:18.196Z,1025.51
2022-08-10T10:54:58.982Z,1025.33
2022-08-10T11:04:38.608Z,1025.18
2022-08-10T11:14:24.118Z,1025.02
2022-08-10T11:24:43.040Z,1025.09
2022-08-10T11:33:39.456Z,1025.06
2022-08-10T11:43:03.601Z,1025.12
2022-08-10T11:52:29.457Z,1025.21
2022-08-10T12:02:20.064Z,1024.94
2022-08-10T12:21:32.320Z,1024.77
2022-08-10T12:31:12.570Z,1024.92
2022-08-10T12:41:01.481Z,1024.54
2022-08-10T12:50:33.607Z,1024.58
2022-08-10T13:00:17.391Z,1024.48
2022-08-10T13:09:55.790Z,1024.38
2022-08-10T13:19:21.022Z,1024.29
2022-08-10T13:39:03.619Z,1023.76
2022-08-10T13:48:31.123Z,1023.61
2022-08-10T13:58:04.280Z,1023.64
2022-08-10T14:08:00.671Z,1023.49
2022-08-10T14:17:45.490Z,1023.3
2022-08-10T14:27:26.970Z,1023.24
2022-08-10T14:37:02.566Z,1023.07
2022-08-10T14:46:42.295Z,1023.04
2022-08-10T15:15:00.640Z,1023.26
2022-08-10T15:24:34.691Z,1023.29
2022-08-10T15:43:54.384Z,1022.83
2022-08-10T15:53:49.619Z,1022.87
2022-08-10T16:12:59.400Z,1022.85
2022-08-10T16:22:34.583Z,1022.88
2022-08-10T16:42:00.464Z,1022.85
2022-08-10T16:51:06.671Z,1022.96
2022-08-10T17:00:43.210Z,1022.95
2022-08-10T17:10:20.276Z,1022.96
2022-08-10T17:19:57.518Z,1022.95
2022-08-10T17:29:53.907Z,1022.93
2022-08-10T17:39:12.161Z,1022.94
2022-08-10T17:48:48.697Z,1022.92
2022-08-10T17:58:24.924Z,1023.02
2022-08-10T18:08:01.069Z,1023.09
2022-08-10T18:17:38.418Z,1023.17
2022-08-10T18:27:13.647Z,1023.21
2022-08-10T18:36:50.074Z,1023.25
2022-08-10T18:46:26.708Z,1023.34
2022-08-10T18:56:08.837Z,1023.55
2022-08-10T19:05:39.515Z,1023.64
2022-08-10T19:15:15.893Z,1023.77
2022-08-10T19:24:52.457Z,1023.94
2022-08-10T19:34:29.269Z,1024.01
2022-08-10T19:53:42.329Z,1024.06
2022-08-10T20:03:18.958Z,1024.12
2022-08-10T20:12:55.043Z,1024.05
2022-08-10T20:22:31.903Z,1024.21
2022-08-10T20:32:08.289Z,1024.24
2022-08-10T20:41:46.243Z,1024.28
2022-08-10T20:51:22.101Z,1024.34
2022-08-10T21:00:58.695Z,1024.37
2022-08-10T21:10:35.849Z,1024.28
2022-08-10T21:20:12.330Z,1024.23
2022-08-10T21:29:54.006Z,1024.3
2022-08-10T21:39:42.142Z,1024.34
2022-08-10T21:49:02.930Z,1024.45
2022-08-10T21:58:39.625Z,1024.49
2022-08-10T22:08:16.248Z,1024.47
2022-08-10T22:17:59.297Z,1024.46
2022-08-10T22:37:07.064Z,1024.44
2022-08-10T22:46:43.595Z,1024.55
2022-08-10T22:56:20.609Z,1024.47
2022-08-10T23:05:57.435Z,1024.52
2022-08-10T23:15:34.125Z,1024.58
2022-08-10T23:25:10.944Z,1024.62
2022-08-10T23:36:05.350Z,1024.47
2022-08-10T23:44:24.352Z,1024.46
2022-08-10T23:54:00.804Z,1024.44
